Terminal Aerodrome Forecast
Issued by NWS La Crosse, WI

Home | Current Version | Previous Version | Text Only | Print | Product List | Glossary On
Versions: 1 2 3 4 5 6 7 8 9 10 11 12 13 14 15 16 17 18 19 20 21 22 23
000
FTUS43 KARX 290201 AAA
TAFRST
TAF AMD
KRST 290201Z 2902/2924 05009KT P6SM -SHRA OVC012
      TEMPO 2902/2904 3SM -RA BR OVC008
     FM290700 03007KT P6SM OVC016
     FM291400 04009KT P6SM BKN035=

USA.gov is the U.S. government's official web portal to all federal, state and local government web resources and services.